x

Settlement Point, Gbi (spgf1) Weather Station

3:00am - Wed 27th Jul 2016 All times are EDT. -4 hours from GMT.

  • Wind
    6mph, 7mph gusts
  • Air Temp 82°f
  • Sea Pressure 1018.7mb
  • Settlement Point, Gbi
  • Settlement Point, Gbi

More Historic Weather Station data

Upgrade to MSW Pro to gain access to the past 30 days of data for over 8000 Wavebouys and Weather Stations around the globe.

Join Pro

Comparision Forecast

View Surf forecast
   
Wed 07/27 3:00am 6 7 mph 1018.7mb 82f
2:00am 5
mph
1019mb 83f
1:00am 5 6 mph 1019.5mb 83f
12:00am 5 6 mph 1019.7mb 83f
Tue 07/26 11:00pm 5 6 mph 1019.7mb 84f
10:00pm 7 8 mph 1019.3mb 84f
9:00pm 6 7 mph 1018.8mb 84f
8:00pm 3 6 mph 1018.3mb 85f
7:00pm 5 6 mph 1017.9mb 85f
6:00pm 6
mph
1018mb 86f
5:00pm 10 14 mph 1018.2mb 87f
4:00pm 13 16 mph 1018.4mb 87f
3:00pm 13 14 mph 1019mb 87f
2:00pm 14 17 mph 1019.7mb 87f
1:00pm 11 15 mph 1020.1mb 87f
12:00pm 9 11 mph 1020.3mb 86f
11:00am 8 10 mph 1020.3mb 86f
10:00am 11 14 mph 1020.2mb 85f
9:00am 11 14 mph 1019.9mb 85f
8:00am 10 13 mph 1019.5mb 84f
7:00am 6 7 mph 1019.2mb 83f
6:00am 6 7 mph 1018.7mb 83f
5:00am 6 7 mph 1018.5mb 83f
4:00am 6 7 mph 1018.7mb 83f
3:00am 7 8 mph 1018.9mb 83f
2:00am 7 8 mph 1019.1mb 83f
1:00am 6 7 mph 1019mb 83f
12:00am 7 9 mph 1019.2mb 83f
Mon 07/25 11:00pm 8 9 mph 1019.4mb 83f
10:00pm 6 7 mph 1019.3mb 83f
9:00pm 6 7 mph 1019mb 84f
8:00pm 8 9 mph 1018.6mb 85f
7:00pm 8 9 mph 1017.9mb 86f
6:00pm 3
mph
1018mb 85f
5:00pm 8 11 mph 1018mb 86f
4:00pm 10 14 mph 1018.2mb 86f
3:00pm 10 13 mph 1018.8mb 87f
2:00pm 5 6 mph 1019.4mb 84f
1:00pm 9 11 mph 1019.8mb 85f
12:00pm 5 6 mph 1020.1mb 85f
11:00am 3
mph
1019.9mb 85f
10:00am 8 10 mph 1019.5mb 84f
9:00am 8 9 mph 1019.3mb 84f
8:00am 6 7 mph 1019.1mb 84f
7:00am 3
mph
1018.7mb 82f
6:00am 3
mph
1018.4mb 82f
5:00am 5 6 mph 1018.2mb 82f
4:00am 3 5 mph 1018.1mb 81f
3:00am 5 6 mph 1018.3mb 80f
2:00am 5 6 mph 1018.5mb 80f
1:00am 6
mph
1019.1mb 80f
12:00am 7 8 mph 1019.2mb 81f
Sun 07/24 11:00pm 5 6 mph 1019.2mb 81f
10:00pm 3
mph
1018.8mb 82f
9:00pm 3
mph
1018.8mb 82f
8:00pm 2
mph
1018.2mb 82f
7:00pm 1 2 mph 1018.1mb 82f
6:00pm 7 8 mph 1018.2mb 80f
5:00pm 7 10 mph 1017.7mb 81f
4:00pm 3 5 mph 1018.5mb 79f
3:00pm 3 5 mph 1018.9mb 76f
2:00pm 6
mph
1019.7mb 80f
1:00pm 8 9 mph 1019.6mb 78f
12:00pm 18 22 mph 1019.3mb 79f
11:00am 22 26 mph 1019mb 81f
10:00am 2 3 mph 1018.6mb 84f
9:00am 1 2 mph 1018.6mb 86f
8:00am 1 2 mph 1018.3mb 83f
7:00am 3 5 mph 1017.6mb 83f
6:00am 10 11 mph 1017.2mb 81f
5:00am 3 6 mph 1017.3mb 82f
4:00am 2 3 mph 1017.3mb 82f
3:00am 3
mph
1017.1mb 82f
2:00am 2 3 mph 1017.7mb 82f
1:00am 6 7 mph 1018.2mb 82f
12:00am 6 7 mph 1017.9mb 82f
Sat 07/23 11:00pm 7
mph
1018.5mb 82f
10:00pm 5 6 mph 1017.9mb 83f
9:00pm 7 9 mph 1017.4mb 83f
8:00pm 7 9 mph 1017.2mb 83f
7:00pm 7 8 mph 1016.9mb 85f
6:00pm 7 8 mph 1016.6mb 85f
5:00pm 5 6 mph 1016.9mb 85f
4:00pm 7 9 mph 1017.3mb 85f
3:00pm 3 5 mph 1017.7mb 85f
2:00pm 7 8 mph 1017.9mb 84f
1:00pm 6 7 mph 1018.5mb 84f
12:00pm 6
mph
1018.4mb 84f
11:00am 5
mph
1018.1mb 84f
10:00am 5 6 mph 1017.8mb 83f
9:00am 3 5 mph 1017.5mb 83f